createdAt,value
2023-05-26T00:00:59.512Z,9.63
2023-05-26T00:03:29.698Z,10.40
2023-05-26T00:05:56.687Z,9.82
2023-05-26T00:08:23.823Z,11.55
2023-05-26T00:10:50.685Z,9.82
2023-05-26T00:13:17.393Z,9.70
2023-05-26T00:15:44.540Z,10.25
2023-05-26T00:18:12.163Z,10.95
2023-05-26T00:20:39.234Z,10.43
2023-05-26T00:23:06.365Z,10.35
2023-05-26T00:25:33.040Z,10.20
2023-05-26T00:28:01.102Z,10.50
2023-05-26T00:30:28.084Z,9.90
2023-05-26T00:32:54.891Z,9.95
2023-05-26T00:35:21.659Z,9.77
2023-05-26T00:37:48.828Z,9.13
2023-05-26T00:40:15.582Z,9.63
2023-05-26T00:42:42.261Z,10.32
2023-05-26T00:45:09.572Z,11.52
2023-05-26T00:47:36.415Z,9.57
2023-05-26T00:50:05.342Z,9.55
2023-05-26T00:52:34.270Z,11.38
2023-05-26T00:55:03.094Z,9.77
2023-05-26T00:57:30.642Z,9.73
2023-05-26T00:59:57.546Z,9.07
2023-05-26T01:02:24.305Z,10.93
2023-05-26T01:04:53.868Z,9.95
2023-05-26T01:07:23.822Z,9.52
2023-05-26T01:09:51.685Z,9.48
2023-05-26T01:12:27.464Z,10.50
2023-05-26T01:15:01.557Z,11.05
2023-05-26T01:17:33.687Z,10.13
2023-05-26T01:20:09.729Z,11.10
2023-05-26T01:22:50.031Z,10.85
2023-05-26T01:25:38.736Z,10.48
2023-05-26T01:28:29.145Z,8.93
2023-05-26T01:30:56.640Z,11.65
2023-05-26T01:33:23.365Z,10.35
2023-05-26T01:35:50.123Z,10.10
2023-05-26T01:38:16.952Z,10.10
2023-05-26T01:40:53.420Z,9.35
2023-05-26T01:43:52.677Z,9.98
2023-05-26T01:46:22.442Z,10.65
2023-05-26T01:48:50.642Z,9.55
2023-05-26T01:51:18.282Z,8.95
2023-05-26T01:53:46.023Z,9.43
2023-05-26T01:56:13.389Z,9.85
2023-05-26T01:58:40.613Z,9.88
2023-05-26T02:01:08.302Z,8.48
2023-05-26T02:03:35.223Z,9.60
2023-05-26T02:06:03.875Z,9.40
2023-05-26T02:08:30.705Z,8.75
2023-05-26T02:10:57.384Z,11.15
2023-05-26T02:13:24.012Z,9.80
2023-05-26T02:15:50.831Z,9.50
2023-05-26T02:18:17.505Z,9.40
2023-05-26T02:20:44.274Z,9.38
2023-05-26T02:23:10.945Z,11.45
2023-05-26T02:25:37.597Z,9.10
2023-05-26T02:28:04.549Z,8.55
2023-05-26T02:30:31.187Z,8.90
2023-05-26T02:32:57.920Z,10.07
2023-05-26T02:35:24.761Z,9.35
2023-05-26T02:37:51.442Z,9.85
2023-05-26T02:40:18.137Z,10.43
2023-05-26T02:42:44.895Z,9.40
2023-05-26T02:45:11.684Z,8.50
2023-05-26T02:47:38.780Z,9.40
2023-05-26T02:50:06.062Z,8.77
2023-05-26T02:52:33.182Z,9.25
2023-05-26T02:54:59.883Z,9.27
2023-05-26T02:57:27.085Z,9.10
2023-05-26T02:59:54.088Z,10.85
2023-05-26T03:02:21.088Z,10.15
2023-05-26T03:04:47.777Z,12.57
2023-05-26T03:07:14.451Z,13.27
2023-05-26T03:09:44.688Z,11.10
2023-05-26T03:12:17.067Z,11.57
2023-05-26T03:14:44.120Z,9.98
2023-05-26T03:17:12.092Z,10.85
2023-05-26T03:19:39.065Z,9.48
2023-05-26T03:22:37.785Z,11.48
2023-05-26T03:24:52.850Z,9.10
2023-05-26T03:27:23.542Z,9.73
2023-05-26T03:29:51.937Z,9.85
2023-05-26T03:32:19.330Z,9.55
2023-05-26T03:34:46.257Z,9.88
2023-05-26T03:37:13.140Z,10.20
2023-05-26T03:39:39.906Z,9.13
2023-05-26T03:42:07.033Z,9.65
2023-05-26T03:44:35.942Z,9.65
2023-05-26T03:47:02.994Z,9.30
2023-05-26T03:49:29.860Z,12.85
2023-05-26T03:51:57.122Z,12.20
2023-05-26T03:54:23.790Z,10.45
2023-05-26T03:56:50.566Z,9.85
2023-05-26T03:59:19.385Z,9.25
2023-05-26T04:01:46.096Z,8.85
2023-05-26T04:04:15.552Z,8.40
2023-05-26T04:06:42.345Z,11.35
2023-05-26T04:09:10.751Z,11.60
2023-05-26T04:11:37.504Z,9.27
2023-05-26T04:14:04.273Z,10.60
2023-05-26T04:16:31.269Z,8.63
2023-05-26T04:18:57.980Z,9.38
2023-05-26T04:21:27.981Z,8.65
2023-05-26T04:23:54.666Z,8.40
2023-05-26T04:26:22.995Z,8.07
2023-05-26T04:29:21.854Z,9.50
2023-05-26T04:32:03.690Z,9.80
2023-05-26T04:34:45.394Z,9.20
2023-05-26T04:37:34.529Z,8.27
2023-05-26T04:40:01.685Z,8.60
2023-05-26T04:42:29.026Z,8.88
2023-05-26T04:44:56.166Z,9.25
2023-05-26T04:47:24.749Z,8.02
2023-05-26T04:49:51.623Z,9.13
2023-05-26T04:52:18.383Z,9.15
2023-05-26T04:54:45.077Z,7.13
2023-05-26T04:57:11.846Z,7.28
2023-05-26T04:59:48.018Z,7.45
2023-05-26T05:02:17.075Z,8.68
2023-05-26T05:04:56.241Z,10.30
2023-05-26T05:07:22.941Z,7.05
2023-05-26T05:09:49.647Z,7.32
2023-05-26T05:12:16.698Z,8.13
2023-05-26T05:14:43.418Z,7.53
2023-05-26T05:17:10.641Z,9.73
2023-05-26T05:19:37.341Z,11.30
2023-05-26T05:22:04.897Z,9.85
2023-05-26T05:24:32.501Z,8.88
2023-05-26T05:27:00.054Z,7.68
2023-05-26T05:29:26.813Z,7.50
2023-05-26T05:31:55.075Z,9.93
2023-05-26T05:34:22.294Z,11.57
2023-05-26T05:36:49.096Z,10.40
2023-05-26T05:39:15.906Z,9.23
2023-05-26T05:41:42.653Z,9.80
2023-05-26T05:44:09.359Z,8.25
2023-05-26T05:46:36.043Z,9.00
2023-05-26T05:49:26.232Z,9.27
2023-05-26T05:51:54.292Z,8.18
2023-05-26T05:54:21.036Z,8.05
2023-05-26T05:56:48.010Z,8.77
2023-05-26T05:59:17.865Z,9.50
2023-05-26T06:01:44.546Z,10.55
2023-05-26T06:04:11.596Z,7.22
2023-05-26T06:06:38.402Z,10.07
2023-05-26T06:09:05.540Z,8.98
2023-05-26T06:11:32.734Z,7.80
2023-05-26T06:13:59.538Z,6.97
2023-05-26T06:16:26.779Z,8.23
2023-05-26T06:18:53.536Z,8.48
2023-05-26T06:21:20.751Z,7.85
2023-05-26T06:23:53.994Z,7.97
2023-05-26T06:26:22.233Z,7.78
2023-05-26T06:28:49.084Z,6.90
2023-05-26T06:31:16.683Z,7.13
2023-05-26T06:33:56.523Z,7.15
2023-05-26T06:36:23.686Z,7.10
2023-05-26T06:38:50.676Z,7.00
2023-05-26T06:41:17.537Z,6.85
2023-05-26T06:43:44.395Z,6.60
2023-05-26T06:46:11.118Z,6.15
2023-05-26T06:48:40.312Z,8.25
2023-05-26T06:51:17.273Z,8.57
2023-05-26T06:53:47.546Z,5.95
2023-05-26T06:56:14.190Z,6.38
2023-05-26T06:58:40.929Z,7.57
2023-05-26T07:01:10.056Z,8.70
2023-05-26T07:03:39.698Z,6.88
2023-05-26T07:06:06.595Z,6.03
2023-05-26T07:08:36.791Z,7.50
2023-05-26T07:11:26.251Z,9.55
2023-05-26T07:13:58.038Z,8.65
2023-05-26T07:16:25.562Z,7.70
2023-05-26T07:18:52.321Z,8.60
2023-05-26T07:21:20.339Z,7.63
2023-05-26T07:23:49.531Z,11.98
2023-05-26T07:26:16.240Z,12.43
2023-05-26T07:28:43.313Z,7.88
2023-05-26T07:31:10.951Z,8.63
2023-05-26T07:33:40.324Z,5.97
2023-05-26T07:36:07.208Z,7.10
2023-05-26T07:38:34.730Z,6.35
2023-05-26T07:41:01.453Z,9.75
2023-05-26T07:43:28.118Z,7.68
2023-05-26T07:45:54.762Z,5.88
2023-05-26T07:48:22.026Z,6.05
2023-05-26T07:50:49.164Z,7.38
2023-05-26T07:53:15.955Z,6.90
2023-05-26T07:55:42.802Z,5.68
2023-05-26T07:58:11.320Z,6.40
2023-05-26T08:00:38.816Z,5.05
2023-05-26T08:03:06.331Z,5.80
2023-05-26T08:05:33.187Z,5.38
2023-05-26T08:07:59.891Z,6.55
2023-05-26T08:10:26.752Z,5.38
2023-05-26T08:12:54.353Z,6.07
2023-05-26T08:15:22.284Z,5.57
2023-05-26T08:17:49.508Z,5.05
2023-05-26T08:20:16.704Z,5.85
2023-05-26T08:22:44.452Z,5.75
2023-05-26T08:25:11.148Z,5.80
2023-05-26T08:27:37.783Z,6.75
2023-05-26T08:30:05.042Z,5.57
2023-05-26T08:32:31.793Z,11.15
2023-05-26T08:34:58.588Z,7.13
2023-05-26T08:37:25.445Z,6.65
2023-05-26T08:39:52.100Z,7.00
2023-05-26T08:42:30.683Z,5.35
2023-05-26T08:45:01.394Z,6.72
2023-05-26T08:47:28.595Z,6.65
2023-05-26T08:50:00.222Z,6.10
2023-05-26T08:52:27.027Z,5.43
2023-05-26T08:54:53.758Z,9.10
2023-05-26T08:57:21.291Z,11.32
2023-05-26T08:59:48.978Z,7.22
2023-05-26T09:02:16.703Z,8.20
2023-05-26T09:04:43.392Z,5.35
2023-05-26T09:07:24.539Z,5.68
2023-05-26T09:09:52.987Z,6.72
2023-05-26T09:12:19.714Z,7.03
2023-05-26T09:14:46.440Z,5.03
2023-05-26T09:17:13.862Z,5.68
2023-05-26T09:19:40.679Z,6.30
2023-05-26T09:22:10.007Z,5.32
2023-05-26T09:24:44.788Z,7.05
2023-05-26T09:27:19.498Z,5.97
2023-05-26T09:30:01.492Z,5.57
2023-05-26T09:32:29.913Z,6.22
2023-05-26T09:34:58.165Z,4.80
2023-05-26T09:37:32.182Z,4.35
2023-05-26T09:40:14.022Z,7.68
2023-05-26T09:42:48.973Z,5.40
2023-05-26T09:47:42.976Z,5.15
2023-05-26T09:50:10.092Z,6.97
2023-05-26T09:52:37.361Z,9.20
2023-05-26T09:55:05.165Z,5.32
2023-05-26T09:57:33.908Z,5.32
2023-05-26T10:00:03.458Z,4.43
2023-05-26T10:02:34.316Z,5.85
2023-05-26T10:05:01.388Z,5.22
2023-05-26T10:07:29.297Z,6.47
2023-05-26T10:10:01.532Z,6.82
2023-05-26T10:12:31.949Z,4.57
2023-05-26T10:14:59.575Z,5.90
2023-05-26T10:17:27.493Z,6.53
2023-05-26T10:19:55.651Z,6.22
2023-05-26T10:22:29.745Z,5.97
2023-05-26T10:25:27.412Z,5.00
2023-05-26T10:28:23.276Z,6.10
2023-05-26T10:30:58.239Z,5.57
2023-05-26T10:33:38.267Z,4.70
2023-05-26T10:36:11.880Z,8.20
2023-05-26T10:38:39.856Z,7.03
2023-05-26T10:41:15.313Z,6.55
2023-05-26T10:43:43.947Z,6.68
2023-05-26T10:46:10.801Z,6.82
2023-05-26T10:48:41.179Z,7.13
2023-05-26T10:51:10.165Z,7.82
2023-05-26T10:53:42.461Z,7.05
2023-05-26T10:56:15.453Z,9.40
2023-05-26T10:58:47.564Z,5.57
2023-05-26T11:01:21.426Z,6.05
2023-05-26T11:03:50.041Z,8.15
2023-05-26T11:06:18.329Z,5.95
2023-05-26T11:08:51.948Z,7.53
2023-05-26T11:11:30.076Z,5.85
2023-05-26T11:14:10.993Z,6.75
2023-05-26T11:16:39.570Z,7.20
2023-05-26T11:19:08.443Z,6.70
2023-05-26T11:21:36.927Z,6.45
2023-05-26T11:24:05.049Z,8.57
2023-05-26T11:26:33.421Z,6.75
2023-05-26T11:29:04.804Z,5.88
2023-05-26T11:31:31.877Z,6.18
2023-05-26T11:33:59.056Z,5.57
2023-05-26T11:36:26.152Z,7.32
2023-05-26T11:38:58.219Z,6.70
2023-05-26T11:41:28.735Z,6.32
2023-05-26T11:43:56.258Z,5.72
2023-05-26T11:46:24.658Z,5.65
2023-05-26T11:48:51.811Z,7.85
2023-05-26T11:51:38.569Z,5.63
2023-05-26T11:54:13.331Z,7.72
2023-05-26T11:56:43.970Z,6.57
2023-05-26T11:59:10.730Z,5.95
2023-05-26T12:01:37.477Z,6.50
2023-05-26T12:04:05.747Z,8.02
2023-05-26T12:06:34.320Z,6.85
2023-05-26T12:09:04.814Z,8.35
2023-05-26T12:11:35.352Z,6.10
2023-05-26T12:14:12.648Z,5.47
2023-05-26T12:16:42.904Z,7.38
2023-05-26T12:19:13.973Z,5.28
2023-05-26T12:21:46.286Z,5.57
2023-05-26T12:24:14.076Z,6.85
2023-05-26T12:26:41.311Z,7.05
2023-05-26T12:29:12.232Z,7.85
2023-05-26T12:31:44.691Z,8.30
2023-05-26T12:34:16.208Z,6.57
2023-05-26T12:36:44.733Z,7.82
2023-05-26T12:39:13.041Z,7.68
2023-05-26T12:41:41.405Z,8.82
2023-05-26T12:44:08.994Z,8.00
2023-05-26T12:46:36.110Z,9.30
2023-05-26T12:49:03.117Z,8.25
2023-05-26T12:51:31.014Z,6.78
2023-05-26T12:53:57.947Z,8.77
2023-05-26T12:56:24.954Z,6.95
2023-05-26T12:58:51.638Z,7.28
2023-05-26T13:01:18.594Z,6.68
2023-05-26T13:03:45.558Z,6.63
2023-05-26T13:06:13.082Z,6.85
2023-05-26T13:08:40.056Z,8.02
2023-05-26T13:11:07.149Z,6.50
2023-05-26T13:13:33.865Z,7.97
2023-05-26T13:16:09.679Z,8.20
2023-05-26T13:18:44.873Z,7.28
2023-05-26T13:21:11.869Z,7.10
2023-05-26T13:23:38.539Z,7.15
2023-05-26T13:26:05.805Z,7.93
2023-05-26T13:28:32.606Z,6.63
2023-05-26T13:30:59.622Z,6.55
2023-05-26T13:33:26.348Z,5.95
2023-05-26T13:35:53.055Z,6.13
2023-05-26T13:38:19.750Z,6.75
2023-05-26T13:40:46.416Z,6.38
2023-05-26T13:43:13.061Z,7.65
2023-05-26T13:45:43.450Z,6.20
2023-05-26T13:48:19.396Z,7.55
2023-05-26T13:50:46.183Z,6.68
2023-05-26T13:53:13.106Z,6.53
2023-05-26T13:55:42.853Z,6.20
2023-05-26T13:58:09.657Z,6.32
2023-05-26T14:00:36.510Z,6.70
2023-05-26T14:03:03.427Z,7.25
2023-05-26T14:05:30.534Z,6.35
2023-05-26T14:07:59.095Z,8.70
2023-05-26T14:10:31.340Z,8.77
2023-05-26T14:12:58.094Z,11.88
2023-05-26T14:15:24.733Z,13.63
2023-05-26T14:18:06.916Z,14.30
2023-05-26T14:21:53.548Z,14.20
2023-05-26T14:23:23.910Z,15.07
2023-05-26T14:25:53.044Z,16.70
2023-05-26T14:28:19.719Z,14.02
2023-05-26T14:30:47.271Z,12.23
2023-05-26T14:33:14.154Z,12.45
2023-05-26T14:35:40.957Z,11.20
2023-05-26T14:38:07.696Z,11.88
2023-05-26T14:40:37.186Z,11.40
2023-05-26T14:43:04.595Z,9.65
2023-05-26T14:45:31.458Z,10.82
2023-05-26T14:47:58.332Z,9.18
2023-05-26T14:50:25.105Z,11.52
2023-05-26T14:52:51.812Z,11.73
2023-05-26T14:55:19.169Z,9.82
2023-05-26T14:57:45.923Z,10.55
2023-05-26T15:00:13.410Z,10.40
2023-05-26T15:02:40.690Z,10.80
2023-05-26T15:05:09.171Z,13.07
2023-05-26T15:07:36.507Z,10.63
2023-05-26T15:10:04.504Z,10.95
2023-05-26T15:12:31.825Z,9.07
2023-05-26T15:14:58.585Z,9.20
2023-05-26T15:17:26.174Z,9.88
2023-05-26T15:19:52.978Z,11.57
2023-05-26T15:22:19.673Z,11.65
2023-05-26T15:24:46.699Z,8.23
2023-05-26T15:27:13.603Z,8.82
2023-05-26T15:29:42.697Z,10.57
2023-05-26T15:32:09.502Z,9.38
2023-05-26T15:34:36.291Z,8.65
2023-05-26T15:37:02.995Z,8.40
2023-05-26T15:39:30.243Z,7.32
2023-05-26T15:41:57.034Z,7.82
2023-05-26T15:44:23.699Z,8.80
2023-05-26T15:46:50.344Z,7.53
2023-05-26T15:49:17.006Z,7.53
2023-05-26T15:51:43.674Z,7.10
2023-05-26T15:54:10.321Z,8.07
2023-05-26T15:56:37.306Z,8.32
2023-05-26T15:59:03.948Z,6.80
2023-05-26T16:01:31.961Z,8.20
2023-05-26T16:04:00.992Z,7.18
2023-05-26T16:06:27.722Z,10.27
2023-05-26T16:08:54.381Z,8.65
2023-05-26T16:11:21.164Z,7.25
2023-05-26T16:13:48.002Z,6.97
2023-05-26T16:16:14.712Z,7.20
2023-05-26T16:18:41.482Z,6.45
2023-05-26T16:21:11.076Z,6.85
2023-05-26T16:23:37.761Z,7.05
2023-05-26T16:26:05.067Z,6.75
2023-05-26T16:28:31.758Z,7.63
2023-05-26T16:30:58.827Z,7.80
2023-05-26T16:33:25.947Z,6.35
2023-05-26T16:35:54.297Z,8.20
2023-05-26T16:38:21.977Z,7.30
2023-05-26T16:40:49.396Z,7.95
2023-05-26T16:43:23.544Z,6.22
2023-05-26T16:46:02.919Z,7.20
2023-05-26T16:48:36.799Z,6.40
2023-05-26T16:51:03.927Z,6.45
2023-05-26T16:53:30.600Z,8.45
2023-05-26T16:55:57.443Z,8.10
2023-05-26T16:58:25.189Z,6.15
2023-05-26T17:00:51.872Z,7.47
2023-05-26T17:03:18.667Z,6.30
2023-05-26T17:05:45.531Z,7.38
2023-05-26T17:08:12.542Z,5.82
2023-05-26T17:10:39.188Z,6.45
2023-05-26T17:13:05.837Z,6.85
2023-05-26T17:15:33.373Z,6.47
2023-05-26T17:18:00.172Z,7.35
2023-05-26T17:20:29.826Z,7.00
2023-05-26T17:22:56.529Z,5.72
2023-05-26T17:25:23.284Z,6.82
2023-05-26T17:27:49.964Z,7.18
2023-05-26T17:30:18.180Z,6.05
2023-05-26T17:32:44.925Z,6.85
2023-05-26T17:35:11.753Z,6.40
2023-05-26T17:37:38.537Z,7.78
2023-05-26T17:40:05.711Z,6.88
2023-05-26T17:42:32.569Z,6.45
2023-05-26T17:44:59.184Z,9.40
2023-05-26T17:47:27.960Z,6.60
2023-05-26T17:49:55.986Z,9.18
2023-05-26T17:52:22.791Z,6.15
2023-05-26T17:54:49.647Z,6.65
2023-05-26T17:57:16.291Z,7.63
2023-05-26T17:59:42.972Z,8.57
2023-05-26T18:02:09.645Z,8.88
2023-05-26T18:04:36.389Z,6.70
2023-05-26T18:07:03.123Z,10.48
2023-05-26T18:09:29.816Z,6.82
2023-05-26T18:11:56.465Z,7.60
2023-05-26T18:14:23.200Z,8.70
2023-05-26T18:16:49.904Z,7.68
2023-05-26T18:19:16.599Z,9.40
2023-05-26T18:21:43.263Z,8.55
2023-05-26T18:24:10.244Z,8.60
2023-05-26T18:26:36.952Z,9.02
2023-05-26T18:29:03.911Z,7.53
2023-05-26T18:31:30.788Z,7.55
2023-05-26T18:34:00.425Z,7.95
2023-05-26T18:36:31.071Z,9.75
2023-05-26T18:38:57.875Z,10.23
2023-05-26T18:41:25.182Z,8.10
2023-05-26T18:43:52.681Z,11.60
2023-05-26T18:46:19.440Z,10.20
2023-05-26T18:48:46.483Z,8.40
2023-05-26T18:51:13.480Z,8.60
2023-05-26T18:53:40.291Z,8.93
2023-05-26T18:56:07.042Z,9.40
2023-05-26T18:58:34.026Z,8.50
2023-05-26T19:01:01.511Z,6.97
2023-05-26T19:03:28.571Z,7.22
2023-05-26T19:05:55.379Z,7.40
2023-05-26T19:08:22.195Z,7.22
2023-05-26T19:10:51.633Z,10.32
2023-05-26T19:13:18.390Z,7.57
2023-05-26T19:15:45.179Z,15.85
2023-05-26T19:18:12.008Z,8.88
2023-05-26T19:20:38.816Z,8.45
2023-05-26T19:23:06.740Z,8.15
2023-05-26T19:25:33.422Z,10.13
2023-05-26T19:28:00.393Z,8.13
2023-05-26T19:30:27.452Z,7.93
2023-05-26T19:32:54.294Z,9.35
2023-05-26T19:35:23.225Z,7.75
2023-05-26T19:37:50.351Z,9.30
2023-05-26T19:40:17.083Z,10.80
2023-05-26T19:42:43.717Z,8.38
2023-05-26T19:45:11.698Z,9.52
2023-05-26T19:47:38.582Z,7.72
2023-05-26T19:50:06.120Z,9.63
2023-05-26T19:52:32.823Z,8.38
2023-05-26T19:54:59.543Z,8.50
2023-05-26T19:57:26.176Z,8.30
2023-05-26T19:59:52.893Z,10.55
2023-05-26T20:02:19.618Z,7.32
2023-05-26T20:04:46.357Z,8.50
2023-05-26T20:07:13.095Z,7.93
2023-05-26T20:09:41.874Z,9.25
2023-05-26T20:12:09.271Z,8.20
2023-05-26T20:14:39.097Z,8.95
2023-05-26T20:17:06.492Z,9.45
2023-05-26T20:19:36.409Z,9.65
2023-05-26T20:22:09.082Z,8.73
2023-05-26T20:24:35.733Z,7.38
2023-05-26T20:27:02.368Z,7.60
2023-05-26T20:29:29.007Z,7.93
2023-05-26T20:31:56.158Z,7.78
2023-05-26T20:34:23.049Z,8.85
2023-05-26T20:36:52.098Z,8.85
2023-05-26T20:39:18.931Z,8.50
2023-05-26T20:41:45.950Z,8.48
2023-05-26T20:44:12.668Z,7.30
2023-05-26T20:46:39.445Z,7.43
2023-05-26T20:49:06.134Z,8.20
2023-05-26T20:51:33.197Z,7.93
2023-05-26T20:53:59.906Z,6.05
2023-05-26T20:56:26.730Z,7.68
2023-05-26T20:58:53.543Z,9.90
2023-05-26T21:01:20.438Z,7.22
2023-05-26T21:03:47.856Z,8.32
2023-05-26T21:06:14.566Z,7.35
2023-05-26T21:08:41.367Z,8.05
2023-05-26T21:11:08.041Z,7.43
2023-05-26T21:13:34.735Z,7.15
2023-05-26T21:16:01.694Z,9.05
2023-05-26T21:18:28.601Z,9.35
2023-05-26T21:20:55.313Z,5.95
2023-05-26T21:23:22.068Z,8.38
2023-05-26T21:25:48.869Z,9.05
2023-05-26T21:28:15.703Z,6.35
2023-05-26T21:30:42.462Z,7.78
2023-05-26T21:33:09.164Z,9.77
2023-05-26T21:35:35.899Z,9.95
2023-05-26T21:38:04.051Z,6.63
2023-05-26T21:40:30.838Z,7.53
2023-05-26T21:42:57.914Z,6.82
2023-05-26T21:45:24.752Z,7.78
2023-05-26T21:47:51.481Z,6.75
2023-05-26T21:50:18.230Z,6.90
2023-05-26T21:52:45.085Z,7.25
2023-05-26T21:55:14.152Z,7.25
2023-05-26T21:57:41.097Z,7.20
2023-05-26T22:00:11.721Z,8.48
2023-05-26T22:02:38.577Z,6.72
2023-05-26T22:05:07.365Z,8.05
2023-05-26T22:07:34.097Z,7.18
2023-05-26T22:10:01.100Z,7.63
2023-05-26T22:12:28.029Z,7.75
2023-05-26T22:14:54.701Z,8.43
2023-05-26T22:17:21.510Z,6.55
2023-05-26T22:19:48.770Z,7.20
2023-05-26T22:22:15.479Z,7.30
2023-05-26T22:24:42.371Z,6.93
2023-05-26T22:27:09.158Z,9.27
2023-05-26T22:29:35.809Z,7.75
2023-05-26T22:32:02.471Z,9.55
2023-05-26T22:34:29.234Z,6.90
2023-05-26T22:36:55.896Z,8.60
2023-05-26T22:39:22.825Z,6.95
2023-05-26T22:41:49.898Z,8.65
2023-05-26T22:44:17.358Z,6.65
2023-05-26T22:46:44.126Z,7.57
2023-05-26T22:49:11.328Z,7.93
2023-05-26T22:51:38.266Z,6.55
2023-05-26T22:54:05.767Z,8.57
2023-05-26T22:56:32.645Z,8.15
2023-05-26T22:59:00.146Z,8.02
2023-05-26T23:01:27.852Z,7.65
2023-05-26T23:03:55.110Z,10.82
2023-05-26T23:06:21.740Z,7.50
2023-05-26T23:08:48.946Z,9.02
2023-05-26T23:11:18.214Z,7.68
2023-05-26T23:13:45.220Z,7.88
2023-05-26T23:16:11.964Z,7.90
2023-05-26T23:18:38.683Z,8.52
2023-05-26T23:21:05.347Z,8.77
2023-05-26T23:23:31.992Z,6.57
2023-05-26T23:25:58.703Z,8.00
2023-05-26T23:28:25.801Z,7.88
2023-05-26T23:30:52.647Z,8.30
2023-05-26T23:33:19.300Z,9.77
2023-05-26T23:35:46.200Z,7.65
2023-05-26T23:38:12.899Z,7.07
2023-05-26T23:40:39.553Z,10.15
2023-05-26T23:43:06.523Z,5.50
2023-05-26T23:45:33.258Z,6.90
2023-05-26T23:47:59.978Z,9.55
2023-05-26T23:50:26.803Z,9.27
2023-05-26T23:52:53.499Z,6.78
2023-05-26T23:55:20.334Z,8.65
2023-05-26T23:57:47.065Z,8.68
